sensor_id;sensor_type;location;lat;lon;timestamp;P1;durP1;ratioP1;P2;durP2;ratioP2
37983;SDS011;64625;50.882;4.376;2023-04-16T00:00:05;5.80;;;3.15;;
37983;SDS011;64625;50.882;4.376;2023-04-16T00:02:32;15.15;;;3.10;;
37983;SDS011;64625;50.882;4.376;2023-04-16T00:04:58;16.08;;;4.40;;
37983;SDS011;64625;50.882;4.376;2023-04-16T00:07:24;17.10;;;3.55;;
37983;SDS011;64625;50.882;4.376;2023-04-16T00:09:49;6.47;;;3.72;;
37983;SDS011;64625;50.882;4.376;2023-04-16T00:12:15;7.07;;;3.40;;
37983;SDS011;64625;50.882;4.376;2023-04-16T00:14:41;14.23;;;4.18;;
37983;SDS011;64625;50.882;4.376;2023-04-16T00:17:07;12.43;;;4.00;;
37983;SDS011;64625;50.882;4.376;2023-04-16T00:19:34;12.45;;;3.42;;
37983;SDS011;64625;50.882;4.376;2023-04-16T00:22:00;11.25;;;3.55;;
37983;SDS011;64625;50.882;4.376;2023-04-16T00:24:26;12.50;;;3.00;;
37983;SDS011;64625;50.882;4.376;2023-04-16T00:26:51;19.27;;;4.63;;
37983;SDS011;64625;50.882;4.376;2023-04-16T00:29:17;11.70;;;3.33;;
37983;SDS011;64625;50.882;4.376;2023-04-16T00:31:43;20.98;;;5.55;;
37983;SDS011;64625;50.882;4.376;2023-04-16T00:34:09;5.53;;;2.75;;
37983;SDS011;64625;50.882;4.376;2023-04-16T00:36:35;5.18;;;2.70;;
37983;SDS011;64625;50.882;4.376;2023-04-16T00:39:01;10.23;;;3.13;;
37983;SDS011;64625;50.882;4.376;2023-04-16T00:41:26;6.85;;;2.78;;
37983;SDS011;64625;50.882;4.376;2023-04-16T00:43:53;10.68;;;3.00;;
37983;SDS011;64625;50.882;4.376;2023-04-16T00:46:26;7.43;;;3.17;;
37983;SDS011;64625;50.882;4.376;2023-04-16T00:48:52;13.50;;;2.78;;
37983;SDS011;64625;50.882;4.376;2023-04-16T00:51:20;11.75;;;3.60;;
37983;SDS011;64625;50.882;4.376;2023-04-16T00:53:46;8.00;;;2.88;;
37983;SDS011;64625;50.882;4.376;2023-04-16T00:56:12;12.15;;;3.53;;
37983;SDS011;64625;50.882;4.376;2023-04-16T00:58:38;13.68;;;3.60;;
37983;SDS011;64625;50.882;4.376;2023-04-16T01:01:05;14.00;;;3.65;;
37983;SDS011;64625;50.882;4.376;2023-04-16T01:03:36;16.75;;;4.18;;
37983;SDS011;64625;50.882;4.376;2023-04-16T01:06:06;14.50;;;3.08;;
37983;SDS011;64625;50.882;4.376;2023-04-16T01:08:32;18.02;;;4.82;;
37983;SDS011;64625;50.882;4.376;2023-04-16T01:10:57;8.25;;;3.97;;
37983;SDS011;64625;50.882;4.376;2023-04-16T01:13:23;15.15;;;3.53;;
37983;SDS011;64625;50.882;4.376;2023-04-16T01:15:50;6.53;;;2.13;;
37983;SDS011;64625;50.882;4.376;2023-04-16T01:18:17;7.32;;;3.55;;
37983;SDS011;64625;50.882;4.376;2023-04-16T01:20:45;14.95;;;1.70;;
37983;SDS011;64625;50.882;4.376;2023-04-16T01:23:12;7.88;;;1.80;;
37983;SDS011;64625;50.882;4.376;2023-04-16T01:25:38;7.35;;;2.60;;
37983;SDS011;64625;50.882;4.376;2023-04-16T01:28:04;3.53;;;1.70;;
37983;SDS011;64625;50.882;4.376;2023-04-16T01:30:31;7.00;;;2.30;;
37983;SDS011;64625;50.882;4.376;2023-04-16T01:32:57;10.25;;;2.33;;
37983;SDS011;64625;50.882;4.376;2023-04-16T01:35:23;6.53;;;1.90;;
37983;SDS011;64625;50.882;4.376;2023-04-16T01:37:50;7.78;;;2.20;;
37983;SDS011;64625;50.882;4.376;2023-04-16T01:40:16;3.35;;;1.73;;
37983;SDS011;64625;50.882;4.376;2023-04-16T01:42:42;3.95;;;1.77;;
37983;SDS011;64625;50.882;4.376;2023-04-16T01:45:09;6.47;;;2.08;;
37983;SDS011;64625;50.882;4.376;2023-04-16T01:47:35;12.90;;;4.55;;
37983;SDS011;64625;50.882;4.376;2023-04-16T01:50:01;4.82;;;1.80;;
37983;SDS011;64625;50.882;4.376;2023-04-16T01:52:27;8.75;;;2.00;;
37983;SDS011;64625;50.882;4.376;2023-04-16T01:54:53;10.27;;;2.20;;
37983;SDS011;64625;50.882;4.376;2023-04-16T01:57:20;5.40;;;2.17;;
37983;SDS011;64625;50.882;4.376;2023-04-16T01:59:45;8.60;;;2.58;;
37983;SDS011;64625;50.882;4.376;2023-04-16T02:02:11;3.80;;;2.53;;
37983;SDS011;64625;50.882;4.376;2023-04-16T02:04:41;7.13;;;2.10;;
37983;SDS011;64625;50.882;4.376;2023-04-16T02:07:09;6.07;;;2.67;;
37983;SDS011;64625;50.882;4.376;2023-04-16T02:09:39;1.98;;;1.73;;
37983;SDS011;64625;50.882;4.376;2023-04-16T02:12:05;9.25;;;2.20;;
37983;SDS011;64625;50.882;4.376;2023-04-16T02:14:32;6.30;;;2.60;;
37983;SDS011;64625;50.882;4.376;2023-04-16T02:16:58;9.73;;;2.40;;
37983;SDS011;64625;50.882;4.376;2023-04-16T02:19:24;7.38;;;2.38;;
37983;SDS011;64625;50.882;4.376;2023-04-16T02:21:51;15.30;;;3.42;;
37983;SDS011;64625;50.882;4.376;2023-04-16T02:24:17;8.93;;;3.75;;
37983;SDS011;64625;50.882;4.376;2023-04-16T02:26:43;8.13;;;2.45;;
37983;SDS011;64625;50.882;4.376;2023-04-16T02:29:09;8.32;;;1.92;;
37983;SDS011;64625;50.882;4.376;2023-04-16T02:31:35;11.93;;;2.95;;
37983;SDS011;64625;50.882;4.376;2023-04-16T02:34:01;11.77;;;2.42;;
37983;SDS011;64625;50.882;4.376;2023-04-16T02:36:28;9.98;;;2.58;;
37983;SDS011;64625;50.882;4.376;2023-04-16T02:38:54;7.60;;;2.60;;
37983;SDS011;64625;50.882;4.376;2023-04-16T02:41:20;4.30;;;1.98;;
37983;SDS011;64625;50.882;4.376;2023-04-16T02:43:46;9.77;;;2.72;;
37983;SDS011;64625;50.882;4.376;2023-04-16T02:46:12;8.27;;;2.28;;
37983;SDS011;64625;50.882;4.376;2023-04-16T02:48:38;9.88;;;2.55;;
37983;SDS011;64625;50.882;4.376;2023-04-16T02:51:04;9.30;;;2.58;;
37983;SDS011;64625;50.882;4.376;2023-04-16T02:53:29;10.35;;;2.78;;
37983;SDS011;64625;50.882;4.376;2023-04-16T02:55:55;7.25;;;2.35;;
37983;SDS011;64625;50.882;4.376;2023-04-16T02:58:22;6.65;;;2.50;;
37983;SDS011;64625;50.882;4.376;2023-04-16T03:00:49;17.15;;;2.95;;
37983;SDS011;64625;50.882;4.376;2023-04-16T03:03:15;11.75;;;4.35;;
37983;SDS011;64625;50.882;4.376;2023-04-16T03:05:41;6.88;;;2.30;;
37983;SDS011;64625;50.882;4.376;2023-04-16T03:08:07;12.60;;;2.55;;
37983;SDS011;64625;50.882;4.376;2023-04-16T03:10:33;11.35;;;2.25;;
37983;SDS011;64625;50.882;4.376;2023-04-16T03:13:00;5.53;;;2.28;;
37983;SDS011;64625;50.882;4.376;2023-04-16T03:15:26;6.25;;;2.40;;
37983;SDS011;64625;50.882;4.376;2023-04-16T03:17:52;4.72;;;3.10;;
37983;SDS011;64625;50.882;4.376;2023-04-16T03:20:18;3.30;;;2.30;;
37983;SDS011;64625;50.882;4.376;2023-04-16T03:22:47;9.90;;;2.78;;
37983;SDS011;64625;50.882;4.376;2023-04-16T03:25:16;6.88;;;2.53;;
37983;SDS011;64625;50.882;4.376;2023-04-16T03:27:42;9.73;;;2.33;;
37983;SDS011;64625;50.882;4.376;2023-04-16T03:30:14;8.15;;;2.58;;
37983;SDS011;64625;50.882;4.376;2023-04-16T03:32:40;12.98;;;3.83;;
37983;SDS011;64625;50.882;4.376;2023-04-16T03:35:06;6.38;;;3.30;;
37983;SDS011;64625;50.882;4.376;2023-04-16T03:37:33;9.48;;;2.25;;
37983;SDS011;64625;50.882;4.376;2023-04-16T03:40:00;8.35;;;2.20;;
37983;SDS011;64625;50.882;4.376;2023-04-16T03:42:25;8.10;;;2.45;;
37983;SDS011;64625;50.882;4.376;2023-04-16T03:44:51;9.13;;;3.03;;
37983;SDS011;64625;50.882;4.376;2023-04-16T03:47:21;6.95;;;2.05;;
37983;SDS011;64625;50.882;4.376;2023-04-16T03:49:47;6.88;;;1.95;;
37983;SDS011;64625;50.882;4.376;2023-04-16T03:52:13;6.45;;;2.03;;
37983;SDS011;64625;50.882;4.376;2023-04-16T03:54:39;8.73;;;2.38;;
37983;SDS011;64625;50.882;4.376;2023-04-16T03:57:05;9.50;;;1.95;;
37983;SDS011;64625;50.882;4.376;2023-04-16T03:59:30;19.08;;;2.83;;
37983;SDS011;64625;50.882;4.376;2023-04-16T04:01:56;7.75;;;2.97;;
37983;SDS011;64625;50.882;4.376;2023-04-16T04:04:22;5.93;;;1.90;;
37983;SDS011;64625;50.882;4.376;2023-04-16T04:06:47;11.95;;;2.10;;
37983;SDS011;64625;50.882;4.376;2023-04-16T04:09:13;11.50;;;1.85;;
37983;SDS011;64625;50.882;4.376;2023-04-16T04:11:41;3.47;;;2.40;;
37983;SDS011;64625;50.882;4.376;2023-04-16T04:14:07;6.22;;;2.65;;
37983;SDS011;64625;50.882;4.376;2023-04-16T04:16:33;4.47;;;2.20;;
37983;SDS011;64625;50.882;4.376;2023-04-16T04:18:59;5.47;;;2.05;;
37983;SDS011;64625;50.882;4.376;2023-04-16T04:21:26;10.52;;;2.45;;
37983;SDS011;64625;50.882;4.376;2023-04-16T04:23:52;6.47;;;3.10;;
37983;SDS011;64625;50.882;4.376;2023-04-16T04:26:18;8.90;;;2.97;;
37983;SDS011;64625;50.882;4.376;2023-04-16T04:28:44;4.50;;;3.05;;
37983;SDS011;64625;50.882;4.376;2023-04-16T04:31:11;7.65;;;3.15;;
37983;SDS011;64625;50.882;4.376;2023-04-16T04:33:37;13.18;;;3.95;;
37983;SDS011;64625;50.882;4.376;2023-04-16T04:36:03;14.35;;;5.20;;
37983;SDS011;64625;50.882;4.376;2023-04-16T04:38:29;8.48;;;3.55;;
37983;SDS011;64625;50.882;4.376;2023-04-16T04:40:55;4.88;;;3.10;;
37983;SDS011;64625;50.882;4.376;2023-04-16T04:43:21;8.48;;;3.50;;
37983;SDS011;64625;50.882;4.376;2023-04-16T04:45:47;18.00;;;4.22;;
37983;SDS011;64625;50.882;4.376;2023-04-16T04:48:13;8.13;;;3.42;;
37983;SDS011;64625;50.882;4.376;2023-04-16T04:50:40;11.80;;;3.42;;
37983;SDS011;64625;50.882;4.376;2023-04-16T04:53:06;4.05;;;2.75;;
37983;SDS011;64625;50.882;4.376;2023-04-16T04:55:39;8.52;;;3.90;;
37983;SDS011;64625;50.882;4.376;2023-04-16T04:58:05;10.43;;;3.83;;
37983;SDS011;64625;50.882;4.376;2023-04-16T05:00:32;11.13;;;4.47;;
37983;SDS011;64625;50.882;4.376;2023-04-16T05:03:02;18.67;;;3.38;;
37983;SDS011;64625;50.882;4.376;2023-04-16T05:05:29;10.98;;;3.35;;
37983;SDS011;64625;50.882;4.376;2023-04-16T05:07:54;6.03;;;2.38;;
37983;SDS011;64625;50.882;4.376;2023-04-16T05:10:20;5.80;;;2.30;;
37983;SDS011;64625;50.882;4.376;2023-04-16T05:12:46;19.00;;;2.42;;
37983;SDS011;64625;50.882;4.376;2023-04-16T05:15:12;5.28;;;2.22;;
37983;SDS011;64625;50.882;4.376;2023-04-16T05:17:39;7.18;;;2.15;;
37983;SDS011;64625;50.882;4.376;2023-04-16T05:20:05;7.38;;;2.65;;
37983;SDS011;64625;50.882;4.376;2023-04-16T05:22:32;7.35;;;2.40;;
37983;SDS011;64625;50.882;4.376;2023-04-16T05:24:59;11.48;;;2.40;;
37983;SDS011;64625;50.882;4.376;2023-04-16T05:27:25;8.52;;;2.00;;
37983;SDS011;64625;50.882;4.376;2023-04-16T05:29:50;4.47;;;2.17;;
37983;SDS011;64625;50.882;4.376;2023-04-16T05:32:16;10.13;;;2.13;;
37983;SDS011;64625;50.882;4.376;2023-04-16T05:34:42;8.07;;;1.75;;
37983;SDS011;64625;50.882;4.376;2023-04-16T05:37:07;3.55;;;1.90;;
37983;SDS011;64625;50.882;4.376;2023-04-16T05:39:33;10.90;;;2.90;;
37983;SDS011;64625;50.882;4.376;2023-04-16T05:41:59;13.20;;;2.33;;
37983;SDS011;64625;50.882;4.376;2023-04-16T05:44:25;5.78;;;1.85;;
37983;SDS011;64625;50.882;4.376;2023-04-16T05:46:51;9.43;;;1.58;;
37983;SDS011;64625;50.882;4.376;2023-04-16T05:49:17;6.22;;;2.15;;
37983;SDS011;64625;50.882;4.376;2023-04-16T05:51:46;14.55;;;1.92;;
37983;SDS011;64625;50.882;4.376;2023-04-16T05:54:12;8.15;;;2.10;;
37983;SDS011;64625;50.882;4.376;2023-04-16T05:56:38;4.82;;;1.80;;
37983;SDS011;64625;50.882;4.376;2023-04-16T05:59:03;9.75;;;1.92;;
37983;SDS011;64625;50.882;4.376;2023-04-16T06:01:29;10.00;;;2.50;;
37983;SDS011;64625;50.882;4.376;2023-04-16T06:03:56;5.65;;;1.75;;
37983;SDS011;64625;50.882;4.376;2023-04-16T06:06:21;13.05;;;2.67;;
37983;SDS011;64625;50.882;4.376;2023-04-16T06:08:47;9.23;;;3.95;;
37983;SDS011;64625;50.882;4.376;2023-04-16T06:11:13;9.48;;;2.05;;
37983;SDS011;64625;50.882;4.376;2023-04-16T06:13:39;12.32;;;2.97;;
37983;SDS011;64625;50.882;4.376;2023-04-16T06:16:06;9.65;;;2.85;;
37983;SDS011;64625;50.882;4.376;2023-04-16T06:18:32;11.13;;;2.75;;
37983;SDS011;64625;50.882;4.376;2023-04-16T06:20:57;7.38;;;3.05;;
37983;SDS011;64625;50.882;4.376;2023-04-16T06:23:23;16.25;;;3.25;;
37983;SDS011;64625;50.882;4.376;2023-04-16T06:25:49;4.88;;;2.75;;
37983;SDS011;64625;50.882;4.376;2023-04-16T06:28:15;17.15;;;3.13;;
37983;SDS011;64625;50.882;4.376;2023-04-16T06:30:42;17.95;;;4.00;;
37983;SDS011;64625;50.882;4.376;2023-04-16T06:33:08;14.18;;;3.67;;
37983;SDS011;64625;50.882;4.376;2023-04-16T06:35:34;5.00;;;2.15;;
37983;SDS011;64625;50.882;4.376;2023-04-16T06:38:00;5.45;;;3.05;;
37983;SDS011;64625;50.882;4.376;2023-04-16T06:40:29;4.38;;;2.35;;
37983;SDS011;64625;50.882;4.376;2023-04-16T06:42:55;17.83;;;2.83;;
37983;SDS011;64625;50.882;4.376;2023-04-16T06:45:21;9.40;;;2.97;;
37983;SDS011;64625;50.882;4.376;2023-04-16T06:47:47;11.80;;;3.00;;
37983;SDS011;64625;50.882;4.376;2023-04-16T06:50:12;16.58;;;5.82;;
37983;SDS011;64625;50.882;4.376;2023-04-16T06:52:38;7.05;;;2.83;;
37983;SDS011;64625;50.882;4.376;2023-04-16T06:55:04;10.02;;;4.20;;
37983;SDS011;64625;50.882;4.376;2023-04-16T06:57:32;20.58;;;4.57;;
37983;SDS011;64625;50.882;4.376;2023-04-16T06:59:58;9.13;;;4.22;;
37983;SDS011;64625;50.882;4.376;2023-04-16T07:02:24;24.95;;;7.03;;
37983;SDS011;64625;50.882;4.376;2023-04-16T07:04:50;20.55;;;5.40;;
37983;SDS011;64625;50.882;4.376;2023-04-16T07:07:16;13.00;;;6.10;;
37983;SDS011;64625;50.882;4.376;2023-04-16T07:09:42;17.77;;;5.65;;
37983;SDS011;64625;50.882;4.376;2023-04-16T07:12:08;26.08;;;6.25;;
37983;SDS011;64625;50.882;4.376;2023-04-16T07:14:35;10.38;;;5.47;;
37983;SDS011;64625;50.882;4.376;2023-04-16T07:17:01;13.80;;;6.53;;
37983;SDS011;64625;50.882;4.376;2023-04-16T07:19:27;16.83;;;5.78;;
37983;SDS011;64625;50.882;4.376;2023-04-16T07:21:57;17.42;;;5.65;;
37983;SDS011;64625;50.882;4.376;2023-04-16T07:24:23;20.48;;;5.22;;
37983;SDS011;64625;50.882;4.376;2023-04-16T07:26:52;18.05;;;5.07;;
37983;SDS011;64625;50.882;4.376;2023-04-16T07:29:18;10.68;;;5.13;;
37983;SDS011;64625;50.882;4.376;2023-04-16T07:31:44;12.63;;;4.93;;
37983;SDS011;64625;50.882;4.376;2023-04-16T07:34:15;22.98;;;5.15;;
37983;SDS011;64625;50.882;4.376;2023-04-16T07:39:06;13.30;;;4.40;;
37983;SDS011;64625;50.882;4.376;2023-04-16T07:41:32;18.70;;;5.80;;
37983;SDS011;64625;50.882;4.376;2023-04-16T07:43:58;14.30;;;4.85;;
37983;SDS011;64625;50.882;4.376;2023-04-16T07:46:24;19.38;;;6.15;;
37983;SDS011;64625;50.882;4.376;2023-04-16T07:48:50;26.25;;;6.00;;
37983;SDS011;64625;50.882;4.376;2023-04-16T07:51:16;12.02;;;5.78;;
37983;SDS011;64625;50.882;4.376;2023-04-16T07:53:42;19.23;;;7.05;;
37983;SDS011;64625;50.882;4.376;2023-04-16T07:56:08;18.13;;;6.50;;
37983;SDS011;64625;50.882;4.376;2023-04-16T07:58:33;19.67;;;7.70;;
37983;SDS011;64625;50.882;4.376;2023-04-16T08:00:59;16.65;;;6.45;;
37983;SDS011;64625;50.882;4.376;2023-04-16T08:03:25;17.48;;;6.25;;
37983;SDS011;64625;50.882;4.376;2023-04-16T08:05:53;18.13;;;6.10;;
37983;SDS011;64625;50.882;4.376;2023-04-16T08:08:19;16.85;;;5.60;;
37983;SDS011;64625;50.882;4.376;2023-04-16T08:10:45;20.05;;;6.82;;
37983;SDS011;64625;50.882;4.376;2023-04-16T08:13:11;10.68;;;6.57;;
37983;SDS011;64625;50.882;4.376;2023-04-16T08:15:37;23.00;;;7.90;;
37983;SDS011;64625;50.882;4.376;2023-04-16T08:18:03;20.58;;;8.00;;
37983;SDS011;64625;50.882;4.376;2023-04-16T08:20:31;22.40;;;7.03;;
37983;SDS011;64625;50.882;4.376;2023-04-16T08:22:57;23.83;;;7.55;;
37983;SDS011;64625;50.882;4.376;2023-04-16T08:25:22;18.13;;;6.30;;
37983;SDS011;64625;50.882;4.376;2023-04-16T08:27:48;12.07;;;7.00;;
37983;SDS011;64625;50.882;4.376;2023-04-16T08:30:15;17.40;;;6.50;;
37983;SDS011;64625;50.882;4.376;2023-04-16T08:32:41;14.90;;;6.75;;
37983;SDS011;64625;50.882;4.376;2023-04-16T08:35:07;18.20;;;6.95;;
37983;SDS011;64625;50.882;4.376;2023-04-16T08:37:40;25.38;;;6.80;;
37983;SDS011;64625;50.882;4.376;2023-04-16T08:40:06;14.35;;;6.45;;
37983;SDS011;64625;50.882;4.376;2023-04-16T08:42:54;23.63;;;9.07;;
37983;SDS011;64625;50.882;4.376;2023-04-16T08:45:22;19.23;;;8.60;;
37983;SDS011;64625;50.882;4.376;2023-04-16T08:47:51;20.52;;;7.18;;
37983;SDS011;64625;50.882;4.376;2023-04-16T08:50:25;27.38;;;8.63;;
37983;SDS011;64625;50.882;4.376;2023-04-16T08:52:52;31.65;;;12.23;;
37983;SDS011;64625;50.882;4.376;2023-04-16T08:55:46;19.45;;;7.82;;
37983;SDS011;64625;50.882;4.376;2023-04-16T09:00:46;25.65;;;8.57;;
37983;SDS011;64625;50.882;4.376;2023-04-16T09:03:13;23.65;;;9.68;;
37983;SDS011;64625;50.882;4.376;2023-04-16T09:05:39;20.13;;;7.60;;
37983;SDS011;64625;50.882;4.376;2023-04-16T09:08:06;19.63;;;8.55;;
37983;SDS011;64625;50.882;4.376;2023-04-16T09:10:33;24.75;;;9.13;;
37983;SDS011;64625;50.882;4.376;2023-04-16T09:12:59;23.05;;;8.10;;
37983;SDS011;64625;50.882;4.376;2023-04-16T09:15:25;24.08;;;9.07;;
37983;SDS011;64625;50.882;4.376;2023-04-16T09:17:51;20.10;;;7.43;;
37983;SDS011;64625;50.882;4.376;2023-04-16T09:20:18;23.40;;;7.95;;
37983;SDS011;64625;50.882;4.376;2023-04-16T09:22:44;31.35;;;8.88;;
37983;SDS011;64625;50.882;4.376;2023-04-16T09:25:10;17.25;;;7.78;;
37983;SDS011;64625;50.882;4.376;2023-04-16T09:27:37;23.58;;;10.32;;
37983;SDS011;64625;50.882;4.376;2023-04-16T09:32:50;24.50;;;8.48;;
37983;SDS011;64625;50.882;4.376;2023-04-16T09:35:20;15.90;;;6.88;;
37983;SDS011;64625;50.882;4.376;2023-04-16T09:37:55;17.58;;;8.27;;
37983;SDS011;64625;50.882;4.376;2023-04-16T09:40:25;13.57;;;6.45;;
37983;SDS011;64625;50.882;4.376;2023-04-16T09:42:55;17.17;;;7.38;;
37983;SDS011;64625;50.882;4.376;2023-04-16T09:45:23;18.95;;;7.32;;
37983;SDS011;64625;50.882;4.376;2023-04-16T09:47:49;22.08;;;7.53;;
37983;SDS011;64625;50.882;4.376;2023-04-16T09:50:15;24.23;;;7.85;;
37983;SDS011;64625;50.882;4.376;2023-04-16T09:52:44;23.70;;;8.73;;
37983;SDS011;64625;50.882;4.376;2023-04-16T09:55:12;20.92;;;7.93;;
37983;SDS011;64625;50.882;4.376;2023-04-16T09:57:38;23.38;;;6.97;;
37983;SDS011;64625;50.882;4.376;2023-04-16T10:00:04;15.45;;;7.88;;
37983;SDS011;64625;50.882;4.376;2023-04-16T10:02:33;18.33;;;7.68;;
37983;SDS011;64625;50.882;4.376;2023-04-16T10:05:00;19.05;;;8.25;;
37983;SDS011;64625;50.882;4.376;2023-04-16T10:07:27;22.00;;;8.65;;
37983;SDS011;64625;50.882;4.376;2023-04-16T10:09:54;15.07;;;7.13;;
37983;SDS011;64625;50.882;4.376;2023-04-16T10:12:20;13.10;;;7.40;;
37983;SDS011;64625;50.882;4.376;2023-04-16T10:14:48;22.05;;;8.30;;
37983;SDS011;64625;50.882;4.376;2023-04-16T10:17:15;17.95;;;8.25;;
37983;SDS011;64625;50.882;4.376;2023-04-16T10:19:41;16.05;;;7.18;;
37983;SDS011;64625;50.882;4.376;2023-04-16T10:22:08;19.00;;;7.40;;
37983;SDS011;64625;50.882;4.376;2023-04-16T10:24:34;20.58;;;8.43;;
37983;SDS011;64625;50.882;4.376;2023-04-16T10:27:04;19.63;;;7.30;;
37983;SDS011;64625;50.882;4.376;2023-04-16T10:29:30;17.65;;;8.00;;
37983;SDS011;64625;50.882;4.376;2023-04-16T10:31:57;19.65;;;8.25;;
37983;SDS011;64625;50.882;4.376;2023-04-16T10:34:24;23.15;;;8.48;;
37983;SDS011;64625;50.882;4.376;2023-04-16T10:36:51;18.75;;;7.95;;
37983;SDS011;64625;50.882;4.376;2023-04-16T10:39:19;16.95;;;8.13;;
37983;SDS011;64625;50.882;4.376;2023-04-16T10:44:38;19.33;;;7.38;;
37983;SDS011;64625;50.882;4.376;2023-04-16T10:47:11;16.98;;;8.32;;
37983;SDS011;64625;50.882;4.376;2023-04-16T10:49:38;16.30;;;8.18;;
37983;SDS011;64625;50.882;4.376;2023-04-16T10:52:11;16.77;;;8.63;;
37983;SDS011;64625;50.882;4.376;2023-04-16T10:54:41;15.80;;;7.63;;
37983;SDS011;64625;50.882;4.376;2023-04-16T10:57:14;14.30;;;8.25;;
37983;SDS011;64625;50.882;4.376;2023-04-16T10:59:43;24.05;;;8.32;;
37983;SDS011;64625;50.882;4.376;2023-04-16T11:02:13;17.85;;;7.55;;
37983;SDS011;64625;50.882;4.376;2023-04-16T11:04:45;30.17;;;9.45;;
37983;SDS011;64625;50.882;4.376;2023-04-16T11:12:14;27.42;;;8.00;;
37983;SDS011;64625;50.882;4.376;2023-04-16T11:14:46;23.55;;;9.55;;
37983;SDS011;64625;50.882;4.376;2023-04-16T11:17:16;23.75;;;8.27;;
37983;SDS011;64625;50.882;4.376;2023-04-16T11:19:43;22.98;;;9.10;;
37983;SDS011;64625;50.882;4.376;2023-04-16T11:22:10;18.08;;;7.88;;
37983;SDS011;64625;50.882;4.376;2023-04-16T11:24:44;20.92;;;8.07;;
37983;SDS011;64625;50.882;4.376;2023-04-16T11:27:11;19.27;;;7.25;;
37983;SDS011;64625;50.882;4.376;2023-04-16T11:29:38;13.93;;;6.70;;
37983;SDS011;64625;50.882;4.376;2023-04-16T11:32:04;17.08;;;8.55;;
37983;SDS011;64625;50.882;4.376;2023-04-16T11:34:30;20.52;;;7.43;;
37983;SDS011;64625;50.882;4.376;2023-04-16T11:36:57;20.83;;;8.73;;
37983;SDS011;64625;50.882;4.376;2023-04-16T11:39:23;20.23;;;8.45;;
37983;SDS011;64625;50.882;4.376;2023-04-16T11:41:49;21.17;;;8.75;;
37983;SDS011;64625;50.882;4.376;2023-04-16T11:44:24;17.95;;;7.95;;
37983;SDS011;64625;50.882;4.376;2023-04-16T11:46:52;15.45;;;9.02;;
37983;SDS011;64625;50.882;4.376;2023-04-16T11:49:28;16.30;;;8.15;;
37983;SDS011;64625;50.882;4.376;2023-04-16T11:51:56;20.90;;;10.05;;
37983;SDS011;64625;50.882;4.376;2023-04-16T11:54:23;24.15;;;9.43;;
37983;SDS011;64625;50.882;4.376;2023-04-16T11:56:50;13.27;;;8.00;;
37983;SDS011;64625;50.882;4.376;2023-04-16T11:59:18;19.38;;;7.55;;
37983;SDS011;64625;50.882;4.376;2023-04-16T12:01:49;22.63;;;8.15;;
37983;SDS011;64625;50.882;4.376;2023-04-16T12:04:25;26.08;;;8.65;;
37983;SDS011;64625;50.882;4.376;2023-04-16T12:07:09;14.77;;;7.90;;
37983;SDS011;64625;50.882;4.376;2023-04-16T12:09:36;27.52;;;8.95;;
37983;SDS011;64625;50.882;4.376;2023-04-16T12:12:03;17.70;;;7.45;;
37983;SDS011;64625;50.882;4.376;2023-04-16T12:14:30;22.05;;;7.60;;
37983;SDS011;64625;50.882;4.376;2023-04-16T12:17:15;21.13;;;8.05;;
37983;SDS011;64625;50.882;4.376;2023-04-16T12:19:48;22.85;;;7.88;;
37983;SDS011;64625;50.882;4.376;2023-04-16T12:22:30;17.33;;;8.70;;
37983;SDS011;64625;50.882;4.376;2023-04-16T12:24:59;17.08;;;8.35;;
37983;SDS011;64625;50.882;4.376;2023-04-16T12:27:49;16.00;;;8.40;;
37983;SDS011;64625;50.882;4.376;2023-04-16T12:30:16;19.95;;;7.72;;
37983;SDS011;64625;50.882;4.376;2023-04-16T12:32:45;19.00;;;7.82;;
37983;SDS011;64625;50.882;4.376;2023-04-16T12:35:12;14.07;;;7.25;;
37983;SDS011;64625;50.882;4.376;2023-04-16T12:37:38;22.40;;;8.70;;
37983;SDS011;64625;50.882;4.376;2023-04-16T12:40:05;22.90;;;8.65;;
37983;SDS011;64625;50.882;4.376;2023-04-16T12:42:31;15.05;;;8.02;;
37983;SDS011;64625;50.882;4.376;2023-04-16T12:45:02;34.92;;;9.80;;
37983;SDS011;64625;50.882;4.376;2023-04-16T12:47:29;45.72;;;29.27;;
37983;SDS011;64625;50.882;4.376;2023-04-16T12:49:58;27.00;;;9.30;;
37983;SDS011;64625;50.882;4.376;2023-04-16T12:52:24;15.05;;;9.23;;
37983;SDS011;64625;50.882;4.376;2023-04-16T12:54:50;26.13;;;9.70;;
37983;SDS011;64625;50.882;4.376;2023-04-16T12:57:17;19.70;;;8.63;;
37983;SDS011;64625;50.882;4.376;2023-04-16T12:59:43;19.42;;;8.57;;
37983;SDS011;64625;50.882;4.376;2023-04-16T13:02:11;23.05;;;7.88;;
37983;SDS011;64625;50.882;4.376;2023-04-16T13:04:37;31.90;;;9.00;;
37983;SDS011;64625;50.882;4.376;2023-04-16T13:07:03;16.35;;;8.40;;
37983;SDS011;64625;50.882;4.376;2023-04-16T13:09:28;19.40;;;9.55;;
37983;SDS011;64625;50.882;4.376;2023-04-16T13:11:55;19.00;;;8.45;;
37983;SDS011;64625;50.882;4.376;2023-04-16T13:14:21;21.73;;;8.52;;
37983;SDS011;64625;50.882;4.376;2023-04-16T13:16:47;21.50;;;8.50;;
37983;SDS011;64625;50.882;4.376;2023-04-16T13:19:12;20.05;;;8.35;;
37983;SDS011;64625;50.882;4.376;2023-04-16T13:21:41;18.48;;;8.30;;
37983;SDS011;64625;50.882;4.376;2023-04-16T13:24:07;20.42;;;9.23;;
37983;SDS011;64625;50.882;4.376;2023-04-16T13:26:33;33.25;;;10.60;;
37983;SDS011;64625;50.882;4.376;2023-04-16T13:28:59;17.20;;;10.00;;
37983;SDS011;64625;50.882;4.376;2023-04-16T13:31:24;25.33;;;10.38;;
37983;SDS011;64625;50.882;4.376;2023-04-16T13:33:50;16.85;;;8.80;;
37983;SDS011;64625;50.882;4.376;2023-04-16T13:36:16;21.40;;;9.52;;
37983;SDS011;64625;50.882;4.376;2023-04-16T13:38:42;23.70;;;9.80;;
37983;SDS011;64625;50.882;4.376;2023-04-16T13:41:11;15.07;;;8.88;;
37983;SDS011;64625;50.882;4.376;2023-04-16T13:43:37;25.35;;;10.82;;
37983;SDS011;64625;50.882;4.376;2023-04-16T13:46:03;25.40;;;10.75;;
37983;SDS011;64625;50.882;4.376;2023-04-16T13:48:29;23.58;;;9.60;;
37983;SDS011;64625;50.882;4.376;2023-04-16T13:50:54;27.23;;;9.88;;
37983;SDS011;64625;50.882;4.376;2023-04-16T13:53:20;17.33;;;8.57;;
37983;SDS011;64625;50.882;4.376;2023-04-16T13:55:46;17.17;;;9.90;;
37983;SDS011;64625;50.882;4.376;2023-04-16T13:58:13;28.20;;;10.88;;
37983;SDS011;64625;50.882;4.376;2023-04-16T14:00:40;18.00;;;8.38;;
37983;SDS011;64625;50.882;4.376;2023-04-16T14:03:07;20.95;;;9.10;;
37983;SDS011;64625;50.882;4.376;2023-04-16T14:05:33;21.77;;;7.93;;
37983;SDS011;64625;50.882;4.376;2023-04-16T14:07:59;21.55;;;8.38;;
37983;SDS011;64625;50.882;4.376;2023-04-16T14:10:25;18.75;;;8.48;;
37983;SDS011;64625;50.882;4.376;2023-04-16T14:12:51;21.38;;;8.60;;
37983;SDS011;64625;50.882;4.376;2023-04-16T14:15:16;14.95;;;9.23;;
37983;SDS011;64625;50.882;4.376;2023-04-16T14:17:43;22.77;;;9.68;;
37983;SDS011;64625;50.882;4.376;2023-04-16T14:20:12;20.85;;;9.60;;
37983;SDS011;64625;50.882;4.376;2023-04-16T14:22:38;17.58;;;10.50;;
37983;SDS011;64625;50.882;4.376;2023-04-16T14:25:07;22.92;;;11.25;;
37983;SDS011;64625;50.882;4.376;2023-04-16T14:27:33;16.00;;;9.98;;
37983;SDS011;64625;50.882;4.376;2023-04-16T14:29:59;20.83;;;10.07;;
37983;SDS011;64625;50.882;4.376;2023-04-16T14:32:25;19.38;;;9.18;;
37983;SDS011;64625;50.882;4.376;2023-04-16T14:34:51;28.02;;;10.02;;
37983;SDS011;64625;50.882;4.376;2023-04-16T14:37:17;20.35;;;9.60;;
37983;SDS011;64625;50.882;4.376;2023-04-16T14:39:43;31.73;;;13.13;;
37983;SDS011;64625;50.882;4.376;2023-04-16T14:42:09;24.60;;;11.90;;
37983;SDS011;64625;50.882;4.376;2023-04-16T14:44:35;29.42;;;11.65;;
37983;SDS011;64625;50.882;4.376;2023-04-16T14:47:01;23.05;;;11.98;;
37983;SDS011;64625;50.882;4.376;2023-04-16T14:49:27;19.55;;;10.10;;
37983;SDS011;64625;50.882;4.376;2023-04-16T14:51:52;21.15;;;10.20;;